createdAt,value
2023-02-28T00:04:02.716Z,-4.32
2023-02-28T00:08:55.573Z,-4.43
2023-02-28T00:13:49.398Z,-4.53
2023-02-28T00:18:42.355Z,-4.65
2023-02-28T00:23:35.457Z,-4.68
2023-02-28T00:28:28.412Z,-4.67
2023-02-28T00:33:21.362Z,-4.69
2023-02-28T00:38:17.860Z,-4.69
2023-02-28T00:43:10.577Z,-4.73
2023-02-28T00:48:03.501Z,-4.79
2023-02-28T00:52:56.186Z,-4.87
2023-02-28T00:57:48.821Z,-5.00
2023-02-28T01:02:41.448Z,-5.10
2023-02-28T01:07:34.226Z,-5.19
2023-02-28T01:12:28.258Z,-5.27
2023-02-28T01:17:22.098Z,-5.29
2023-02-28T01:22:14.826Z,-5.25
2023-02-28T01:27:08.812Z,-5.27
2023-02-28T01:32:03.570Z,-5.32
2023-02-28T01:36:56.221Z,-5.39
2023-02-28T01:41:48.902Z,-5.51
2023-02-28T01:46:41.715Z,-5.60
2023-02-28T01:51:51.789Z,-5.66
2023-02-28T01:56:55.340Z,-5.71
2023-02-28T02:01:48.229Z,-5.72
2023-02-28T02:06:46.405Z,-5.71
2023-02-28T02:11:41.893Z,-5.72
2023-02-28T02:16:53.684Z,-5.70
2023-02-28T02:22:03.863Z,-5.73
2023-02-28T02:27:25.789Z,-5.80
2023-02-28T02:32:36.588Z,-5.86
2023-02-28T02:37:42.520Z,-5.96
2023-02-28T02:42:44.625Z,-6.00
2023-02-28T02:47:39.319Z,-5.99
2023-02-28T02:52:44.487Z,-5.98
2023-02-28T02:57:51.978Z,-5.95
2023-02-28T03:02:47.959Z,-5.97
2023-02-28T03:07:40.718Z,-6.05
2023-02-28T03:12:55.637Z,-6.16
2023-02-28T03:18:12.881Z,-6.21
2023-02-28T03:23:11.605Z,-6.28
2023-02-28T03:28:17.019Z,-6.35
2023-02-28T03:33:14.835Z,-6.39
2023-02-28T03:38:17.912Z,-6.44
2023-02-28T03:43:18.256Z,-6.45
2023-02-28T03:48:29.878Z,-6.40
2023-02-28T03:53:37.549Z,-6.32
2023-02-28T03:58:43.281Z,-6.27
2023-02-28T04:03:40.527Z,-6.24
2023-02-28T04:08:33.436Z,-6.22
2023-02-28T04:13:26.127Z,-6.23
2023-02-28T04:18:18.794Z,-6.21
2023-02-28T04:23:11.447Z,-6.16
2023-02-28T04:28:04.135Z,-6.12
2023-02-28T04:32:56.800Z,-6.13
2023-02-28T04:37:49.508Z,-6.15
2023-02-28T04:42:42.227Z,-6.21
2023-02-28T04:47:35.212Z,-6.21
2023-02-28T04:52:35.265Z,-6.21
2023-02-28T04:57:27.932Z,-6.26
2023-02-28T05:02:22.222Z,-6.28
2023-02-28T05:07:15.175Z,-6.24
2023-02-28T05:12:08.071Z,-6.20
2023-02-28T05:17:01.935Z,-6.24
2023-02-28T05:21:57.987Z,-6.28
2023-02-28T05:26:53.877Z,-6.29
2023-02-28T05:31:46.939Z,-6.29
2023-02-28T05:36:40.968Z,-6.28
2023-02-28T05:41:33.656Z,-6.28
2023-02-28T05:46:29.379Z,-6.29
2023-02-28T05:51:22.787Z,-6.26
2023-02-28T05:56:15.429Z,-6.21
2023-02-28T06:01:34.440Z,-6.14
2023-02-28T06:06:31.712Z,-6.08
2023-02-28T06:11:28.787Z,-6.01
2023-02-28T06:16:21.869Z,-5.91
2023-02-28T06:21:15.254Z,-5.78
2023-02-28T06:26:09.139Z,-5.64
2023-02-28T06:31:01.882Z,-5.51
2023-02-28T06:35:55.056Z,-5.36
2023-02-28T06:40:56.022Z,-5.16
2023-02-28T06:45:49.010Z,-5.00
2023-02-28T06:50:41.803Z,-4.79
2023-02-28T06:55:34.516Z,-4.63
2023-02-28T07:00:27.333Z,-4.44
2023-02-28T07:05:19.952Z,-4.26
2023-02-28T07:10:14.602Z,-4.07
2023-02-28T07:15:08.149Z,-3.55
2023-02-28T07:20:00.845Z,-3.37
2023-02-28T07:24:53.802Z,-3.44
2023-02-28T07:29:46.457Z,-3.47
2023-02-28T07:34:39.341Z,-3.03
2023-02-28T07:39:32.009Z,-2.46
2023-02-28T07:44:24.635Z,-2.65
2023-02-28T07:49:17.309Z,-2.64
2023-02-28T07:54:09.946Z,-2.36
2023-02-28T07:59:03.246Z,-1.99
2023-02-28T08:03:55.980Z,-0.55
2023-02-28T08:08:49.277Z,1.11
2023-02-28T08:13:43.547Z,2.14
2023-02-28T08:18:36.258Z,2.29
2023-02-28T08:23:28.928Z,2.59
2023-02-28T08:28:22.137Z,6.20
2023-02-28T08:33:14.901Z,7.83
2023-02-28T08:38:07.522Z,8.54
2023-02-28T08:43:00.716Z,7.58
2023-02-28T08:47:53.647Z,6.03
2023-02-28T08:52:46.624Z,5.04
2023-02-28T08:57:39.300Z,5.39
2023-02-28T09:02:35.718Z,5.17
2023-02-28T09:07:28.731Z,4.77
2023-02-28T09:12:23.346Z,5.22
2023-02-28T09:17:16.112Z,4.98
2023-02-28T09:22:10.307Z,4.69
2023-02-28T09:27:05.360Z,5.05
2023-02-28T09:31:59.778Z,5.42
2023-02-28T09:36:55.717Z,4.87
2023-02-28T09:41:54.206Z,6.18
2023-02-28T09:46:50.844Z,7.41
2023-02-28T09:51:59.764Z,8.44
2023-02-28T09:56:57.601Z,8.52
2023-02-28T10:01:50.287Z,7.99
2023-02-28T10:06:53.065Z,8.13
2023-02-28T10:16:56.411Z,7.31
2023-02-28T10:22:03.406Z,8.73
2023-02-28T10:27:24.063Z,8.06
2023-02-28T10:32:20.773Z,8.31
2023-02-28T10:37:16.946Z,9.01
2023-02-28T10:42:27.354Z,9.28
2023-02-28T10:47:22.216Z,8.84
2023-02-28T10:52:15.308Z,8.23
2023-02-28T10:57:16.715Z,8.03
2023-02-28T11:02:37.375Z,8.01
2023-02-28T11:07:37.357Z,8.15
2023-02-28T11:12:50.741Z,8.79
2023-02-28T11:17:44.881Z,9.71
2023-02-28T11:22:41.286Z,10.21
2023-02-28T11:27:34.854Z,11.40
2023-02-28T11:32:32.545Z,12.49
2023-02-28T11:37:25.311Z,13.19
2023-02-28T11:42:36.716Z,13.64
2023-02-28T11:47:57.277Z,14.03
2023-02-28T11:52:56.039Z,14.46
2023-02-28T11:58:10.713Z,14.98
2023-02-28T12:03:18.275Z,14.85
2023-02-28T12:08:45.221Z,14.59
2023-02-28T12:13:47.338Z,13.41
2023-02-28T12:19:08.009Z,12.11
2023-02-28T12:24:35.187Z,10.70
2023-02-28T12:29:36.692Z,9.65
2023-02-28T12:34:51.825Z,8.79
2023-02-28T12:39:50.901Z,8.23
2023-02-28T12:44:53.864Z,7.80
2023-02-28T12:50:13.181Z,7.56
2023-02-28T12:55:24.906Z,7.58
2023-02-28T13:00:24.817Z,7.59
2023-02-28T13:06:09.207Z,7.56
2023-02-28T13:11:03.739Z,7.54
2023-02-28T13:16:09.196Z,7.40
2023-02-28T13:21:02.747Z,7.26
2023-02-28T13:25:55.991Z,7.19
2023-02-28T13:30:56.657Z,6.98
2023-02-28T13:35:49.653Z,6.90
2023-02-28T13:40:42.687Z,6.95
2023-02-28T13:45:39.360Z,6.84
2023-02-28T13:50:38.987Z,6.69
2023-02-28T13:55:45.912Z,6.52
2023-02-28T14:00:54.014Z,6.21
2023-02-28T14:05:47.170Z,5.93
2023-02-28T14:10:52.481Z,5.69
2023-02-28T14:15:46.056Z,5.50
2023-02-28T14:20:39.194Z,5.33
2023-02-28T14:25:41.410Z,5.18
2023-02-28T14:31:06.607Z,5.06
2023-02-28T14:36:14.561Z,4.90
2023-02-28T14:41:14.741Z,4.75
2023-02-28T14:46:08.724Z,4.59
2023-02-28T14:51:03.256Z,4.43
2023-02-28T14:55:57.257Z,4.23
2023-02-28T15:00:52.279Z,4.02
2023-02-28T15:05:54.435Z,3.73
2023-02-28T15:10:54.544Z,3.43
2023-02-28T15:16:04.418Z,3.20
2023-02-28T15:21:01.428Z,2.95
2023-02-28T15:25:55.638Z,2.71
2023-02-28T15:31:01.332Z,2.47
2023-02-28T15:36:24.308Z,2.23
2023-02-28T15:41:29.185Z,1.95
2023-02-28T15:46:22.413Z,1.72
2023-02-28T15:51:24.901Z,1.52
2023-02-28T15:56:58.791Z,1.33
2023-02-28T16:02:12.098Z,1.07
2023-02-28T16:07:07.458Z,0.77
2023-02-28T16:12:05.184Z,0.55
2023-02-28T16:17:05.338Z,0.37
2023-02-28T16:21:58.030Z,0.20
2023-02-28T16:26:53.840Z,-0.01
2023-02-28T16:31:46.621Z,-0.22
2023-02-28T16:36:39.314Z,-0.39
2023-02-28T16:41:32.921Z,-0.54
2023-02-28T16:46:26.586Z,-0.70
2023-02-28T16:51:20.163Z,-0.81
2023-02-28T16:56:20.657Z,-0.91
2023-02-28T17:01:13.644Z,-1.04
2023-02-28T17:06:07.160Z,-1.14
2023-02-28T17:11:03.445Z,-1.21
2023-02-28T17:15:57.220Z,-1.30
2023-02-28T17:20:50.634Z,-1.41
2023-02-28T17:25:56.334Z,-1.52
2023-02-28T17:30:50.965Z,-1.62
2023-02-28T17:35:43.805Z,-1.70
2023-02-28T17:40:37.334Z,-1.75
2023-02-28T17:45:30.041Z,-1.84
2023-02-28T17:50:24.108Z,-1.91
2023-02-28T17:55:16.859Z,-1.97
2023-02-28T18:00:17.867Z,-2.05
2023-02-28T18:05:12.220Z,-2.10
2023-02-28T18:10:05.385Z,-2.13
2023-02-28T18:14:58.017Z,-2.17
2023-02-28T18:19:50.938Z,-2.23
2023-02-28T18:24:44.723Z,-2.27
2023-02-28T18:29:39.191Z,-2.34
2023-02-28T18:34:33.326Z,-2.41
2023-02-28T18:39:32.110Z,-2.46
2023-02-28T18:44:24.865Z,-2.47
2023-02-28T18:49:18.937Z,-2.49
2023-02-28T18:54:12.649Z,-2.47
2023-02-28T18:59:05.375Z,-2.43
2023-02-28T19:03:58.982Z,-2.42
2023-02-28T19:08:56.142Z,-2.43
2023-02-28T19:13:49.637Z,-2.51
2023-02-28T19:18:42.550Z,-2.64
2023-02-28T19:23:35.856Z,-2.74
2023-02-28T19:28:31.588Z,-2.82
2023-02-28T19:33:24.257Z,-2.88
2023-02-28T19:38:18.949Z,-2.96
2023-02-28T19:43:11.980Z,-3.02
2023-02-28T19:48:06.038Z,-3.08
2023-02-28T19:53:00.426Z,-3.15
2023-02-28T19:57:53.482Z,-3.19
2023-02-28T20:02:46.123Z,-3.24
2023-02-28T20:07:38.764Z,-3.27
2023-02-28T20:12:31.511Z,-3.31
2023-02-28T20:17:24.586Z,-3.40
2023-02-28T20:22:18.482Z,-3.51
2023-02-28T20:27:11.432Z,-3.56
2023-02-28T20:32:04.227Z,-3.64
2023-02-28T20:36:58.904Z,-3.72
2023-02-28T20:41:51.717Z,-3.76
2023-02-28T20:46:44.415Z,-3.77
2023-02-28T20:51:40.123Z,-3.82
2023-02-28T20:56:32.797Z,-3.81
2023-02-28T21:01:28.731Z,-3.83
2023-02-28T21:06:24.486Z,-3.88
2023-02-28T21:11:23.917Z,-3.93
2023-02-28T21:16:19.310Z,-4.00
2023-02-28T21:21:15.172Z,-4.11
2023-02-28T21:26:10.545Z,-4.21
2023-02-28T21:31:09.379Z,-4.29
2023-02-28T21:36:26.279Z,-4.38
2023-02-28T21:41:21.486Z,-4.45
2023-02-28T21:46:20.485Z,-4.46
2023-02-28T21:51:21.571Z,-4.48
2023-02-28T21:56:18.380Z,-4.50
2023-02-28T22:01:17.491Z,-4.48
2023-02-28T22:06:16.250Z,-4.48
2023-02-28T22:11:09.792Z,-4.52
2023-02-28T22:16:04.570Z,-4.56
2023-02-28T22:20:57.708Z,-4.60
2023-02-28T22:25:50.407Z,-4.60
2023-02-28T22:30:43.137Z,-4.66
2023-02-28T22:35:35.897Z,-4.73
2023-02-28T22:40:28.553Z,-4.75
2023-02-28T22:45:21.193Z,-4.74
2023-02-28T22:50:14.150Z,-4.72
2023-02-28T22:55:07.750Z,-4.71
2023-02-28T23:00:00.382Z,-4.66
2023-02-28T23:04:53.047Z,-4.64
2023-02-28T23:09:45.706Z,-4.67
2023-02-28T23:14:38.367Z,-4.72
2023-02-28T23:19:32.320Z,-4.75
2023-02-28T23:24:28.004Z,-4.78
2023-02-28T23:29:23.001Z,-4.78
2023-02-28T23:34:17.286Z,-4.81
2023-02-28T23:39:10.051Z,-4.83
2023-02-28T23:44:02.851Z,-4.88
2023-02-28T23:48:55.638Z,-4.91
2023-02-28T23:53:50.941Z,-4.89
2023-02-28T23:58:46.034Z,-4.89
